Aérodrome :
LOGIN :

S'inscrire | Disclaimer

   EN    FR    IT 

 










Légende :    VFR   VFR Marginal   IFR   IFR Intensif   IFR Très Intensif
Visi : 
Plafond : 
>= 8 km
>= 3000ft
5 à 8 km
1000 à 3000 ft
1500m à 5 km
500 à 1000 ft
800 à 1500m
200 à 500 ft
< 800m
< 200 ft
Symboles :   Orages  Brouillard  Fortes neiges  Fortes précipitations  Vent > 20 kt
SIGMETs :   Divers  Orages  Givrage  Turbulence  Onde Orograph.  Cendres Volcan.







- Altitude de l'aérodrome : 1000 ft
- Code IATA : PEV


LHPP - Pécs Pogany

DERNIER METAR :
  • 181415Z 14004KT 9999 FEW046TCU SCT200 26/15 Q1012

METARs EXPIRÉS :
  • 181345Z 09004KT 9999 FEW046TCU SCT200 25/15 Q1012
  • 181315Z 06005KT 9999 FEW046TCU BKN083 25/15 Q1013
  • 181245Z 03006KT 9999 FEW046CB BKN083 23/16 Q1013
  • 181215Z 02007KT 9999 FEW046TCU BKN083 21/16 Q1013
  • 181145Z 02008KT 9999 FEW046TCU SCT050 BKN083 21/15 Q1013 RESHRA

TAF TAF LHPP
Valide du 18 à 15h jusqu'au 19 à 00h UTC


181415Z 1815/1824 08004KT CAVOK
TEMPO 1815/1818 FEW045CB SCT055
Pas de NOTAMs connus pour ce terrain.



MET'MAP, la Météo Aéronautique d'un coup d'oeil ! - Copyright ORBIFLY Décembre 2007 - Disclaimer

ORBIFLY MET'MAP TEAM :

Programmation & Développement : Alexandra Zaïnal
Conception & Développement : Baudouin d'Aumeries
Co-Programmation & Développement : Marc-Olivier Méhu
Soutien technique & logistique : Manuel Goepfert

Contact : metmap@orbifly.com




SOURCES & CREDITS :

   NOAA